createdAt,value
2023-01-17T00:00:20.467Z,30.40
2023-01-17T00:03:24.190Z,30.67
2023-01-17T00:06:45.063Z,28.50
2023-01-17T00:09:57.280Z,26.73
2023-01-17T00:13:02.679Z,26.83
2023-01-17T00:16:07.207Z,27.67
2023-01-17T00:19:28.628Z,25.20
2023-01-17T00:22:50.549Z,27.53
2023-01-17T00:26:05.190Z,27.73
2023-01-17T00:29:07.662Z,27.17
2023-01-17T00:32:09.967Z,30.13
2023-01-17T00:35:12.274Z,28.03
2023-01-17T00:38:16.430Z,29.00
2023-01-17T00:41:20.380Z,40.03
2023-01-17T00:44:41.542Z,32.13
2023-01-17T00:48:04.390Z,28.70
2023-01-17T00:51:25.198Z,31.43
2023-01-17T00:54:45.823Z,32.70
2023-01-17T00:58:08.387Z,31.53
2023-01-17T01:01:29.785Z,35.20
2023-01-17T01:04:50.825Z,34.47
2023-01-17T01:08:11.941Z,33.40
2023-01-17T01:11:35.686Z,36.07
2023-01-17T01:14:58.521Z,38.73
2023-01-17T01:18:24.808Z,38.37
2023-01-17T01:21:45.946Z,37.10
2023-01-17T01:25:06.869Z,35.20
2023-01-17T01:28:30.423Z,34.97
2023-01-17T01:31:52.850Z,32.83
2023-01-17T01:34:56.424Z,32.83
2023-01-17T01:37:59.949Z,34.57
2023-01-17T01:41:03.626Z,34.13
2023-01-17T01:44:27.295Z,33.47
2023-01-17T01:47:37.428Z,32.27
2023-01-17T01:50:40.973Z,32.33
2023-01-17T01:53:48.311Z,34.20
2023-01-17T01:56:55.404Z,33.07
2023-01-17T02:00:03.356Z,34.10
2023-01-17T02:03:20.828Z,33.00
2023-01-17T02:06:31.701Z,32.43
2023-01-17T02:09:35.575Z,33.53
2023-01-17T02:12:39.866Z,32.40
2023-01-17T02:15:51.635Z,32.50
2023-01-17T02:19:10.312Z,32.30
2023-01-17T02:22:31.431Z,31.73
2023-01-17T02:26:03.056Z,30.20
2023-01-17T02:29:31.541Z,31.83
2023-01-17T02:32:48.185Z,31.27
2023-01-17T02:35:59.880Z,31.20
2023-01-17T02:39:10.715Z,33.47
2023-01-17T02:42:18.756Z,32.37
2023-01-17T02:45:23.753Z,33.43
2023-01-17T02:48:32.882Z,35.90
2023-01-17T02:51:49.252Z,40.13
2023-01-17T02:55:15.520Z,36.13
2023-01-17T02:58:32.322Z,35.30
2023-01-17T03:01:45.686Z,33.80
2023-01-17T03:04:55.651Z,35.10
2023-01-17T03:08:00.246Z,34.43
2023-01-17T03:11:03.843Z,35.63
2023-01-17T03:14:07.388Z,33.03
2023-01-17T03:17:11.205Z,32.97
2023-01-17T03:20:16.667Z,34.43
2023-01-17T03:23:20.463Z,32.67
2023-01-17T03:26:24.064Z,33.80
2023-01-17T03:29:27.630Z,28.83
2023-01-17T03:32:31.350Z,31.27
2023-01-17T03:35:36.527Z,28.73
2023-01-17T03:38:40.411Z,30.27
2023-01-17T03:41:44.064Z,30.40
2023-01-17T03:44:47.557Z,28.87
2023-01-17T03:47:51.002Z,31.20
2023-01-17T03:50:56.063Z,28.90
2023-01-17T03:53:59.661Z,31.37
2023-01-17T03:57:03.196Z,32.50
2023-01-17T04:00:08.222Z,31.43
2023-01-17T04:03:11.863Z,31.80
2023-01-17T04:06:16.903Z,32.97
2023-01-17T04:09:20.471Z,32.90
2023-01-17T04:12:24.153Z,34.00
2023-01-17T04:15:27.684Z,31.43
2023-01-17T04:18:31.411Z,30.67
2023-01-17T04:21:36.381Z,33.47
2023-01-17T04:24:39.947Z,33.23
2023-01-17T04:27:43.620Z,32.17
2023-01-17T04:30:47.225Z,32.33
2023-01-17T04:33:50.812Z,29.43
2023-01-17T04:36:55.768Z,28.20
2023-01-17T04:39:59.336Z,28.40
2023-01-17T04:43:02.920Z,30.40
2023-01-17T04:46:10.281Z,28.30
2023-01-17T04:49:14.193Z,30.80
2023-01-17T04:52:20.797Z,29.67
2023-01-17T04:55:24.371Z,33.93
2023-01-17T04:58:28.218Z,33.53
2023-01-17T05:01:32.148Z,33.23
2023-01-17T05:04:35.793Z,34.47
2023-01-17T05:07:41.199Z,32.00
2023-01-17T05:10:47.290Z,35.23
2023-01-17T05:13:51.419Z,31.83
2023-01-17T05:16:55.717Z,32.93
2023-01-17T05:19:59.659Z,33.40
2023-01-17T05:23:04.743Z,33.57
2023-01-17T05:26:08.534Z,36.00
2023-01-17T05:29:12.501Z,34.63
2023-01-17T05:32:16.237Z,29.80
2023-01-17T05:35:21.219Z,29.73
2023-01-17T05:38:26.405Z,31.63
2023-01-17T05:41:30.066Z,31.77
2023-01-17T05:44:33.772Z,31.77
2023-01-17T05:47:37.578Z,32.90
2023-01-17T05:50:41.311Z,32.40
2023-01-17T05:53:46.398Z,33.63
2023-01-17T05:56:50.098Z,31.60
2023-01-17T05:59:53.879Z,33.97
2023-01-17T06:02:59.056Z,32.87
2023-01-17T06:06:02.920Z,35.37
2023-01-17T06:09:08.249Z,35.17
2023-01-17T06:12:12.059Z,34.07
2023-01-17T06:15:18.019Z,32.53
2023-01-17T06:18:21.707Z,33.30
2023-01-17T06:21:25.478Z,30.07
2023-01-17T06:24:30.778Z,33.63
2023-01-17T06:27:34.560Z,33.67
2023-01-17T06:30:38.445Z,35.87
2023-01-17T06:33:42.259Z,36.20
2023-01-17T06:36:46.228Z,34.83
2023-01-17T06:39:51.639Z,34.03
2023-01-17T06:42:55.593Z,31.93
2023-01-17T06:45:59.459Z,31.23
2023-01-17T06:49:03.378Z,32.03
2023-01-17T06:52:07.158Z,34.37
2023-01-17T06:55:12.600Z,36.37
2023-01-17T06:58:16.423Z,30.27
2023-01-17T07:01:20.853Z,30.90
2023-01-17T07:04:24.671Z,34.43
2023-01-17T07:07:31.864Z,31.17
2023-01-17T07:10:38.884Z,31.67
2023-01-17T07:13:43.001Z,33.40
2023-01-17T07:16:49.368Z,30.27
2023-01-17T07:19:54.429Z,30.53
2023-01-17T07:22:58.422Z,31.87
2023-01-17T07:26:04.298Z,34.97
2023-01-17T07:29:08.466Z,31.57
2023-01-17T07:32:12.290Z,31.00
2023-01-17T07:35:16.228Z,32.70
2023-01-17T07:38:21.481Z,31.87
2023-01-17T07:41:27.227Z,31.50
2023-01-17T07:44:30.998Z,32.50
2023-01-17T07:47:34.999Z,32.80
2023-01-17T07:50:39.173Z,33.33
2023-01-17T07:53:43.019Z,33.33
2023-01-17T07:56:48.337Z,34.20
2023-01-17T07:59:52.478Z,36.17
2023-01-17T08:02:58.862Z,36.93
2023-01-17T08:06:02.818Z,34.70
2023-01-17T08:09:06.902Z,34.63
2023-01-17T08:12:12.371Z,34.17
2023-01-17T08:15:16.922Z,32.57
2023-01-17T08:18:20.741Z,35.03
2023-01-17T08:21:24.990Z,35.43
2023-01-17T08:24:28.861Z,33.67
2023-01-17T08:27:35.554Z,33.50
2023-01-17T08:30:40.278Z,31.00
2023-01-17T08:33:44.163Z,30.90
2023-01-17T08:36:48.218Z,33.63
2023-01-17T08:39:51.978Z,35.60
2023-01-17T08:42:58.620Z,35.83
2023-01-17T08:46:02.994Z,35.60
2023-01-17T08:49:06.900Z,36.93
2023-01-17T08:52:13.240Z,36.53
2023-01-17T08:55:17.523Z,31.70
2023-01-17T08:58:23.566Z,32.53
2023-01-17T09:01:27.767Z,34.90
2023-01-17T09:04:31.725Z,35.23
2023-01-17T09:07:35.784Z,32.43
2023-01-17T09:10:39.624Z,34.27
2023-01-17T09:13:45.150Z,31.77
2023-01-17T09:16:49.587Z,34.77
2023-01-17T09:19:53.416Z,33.43
2023-01-17T09:22:57.442Z,34.53
2023-01-17T09:26:01.761Z,35.30
2023-01-17T09:29:07.099Z,39.37
2023-01-17T09:32:10.959Z,36.47
2023-01-17T09:35:14.820Z,36.33
2023-01-17T09:38:18.663Z,34.07
2023-01-17T09:41:28.249Z,32.60
2023-01-17T09:44:43.171Z,38.07
2023-01-17T09:47:51.396Z,33.57
2023-01-17T09:51:00.398Z,35.70
2023-01-17T09:54:04.507Z,35.43
2023-01-17T09:57:30.518Z,36.80
2023-01-17T10:00:44.410Z,37.53
2023-01-17T10:04:11.907Z,41.07
2023-01-17T10:07:26.499Z,38.00
2023-01-17T10:10:40.398Z,36.17
2023-01-17T10:13:53.718Z,35.67
2023-01-17T10:17:08.856Z,34.47
2023-01-17T10:20:26.979Z,34.73
2023-01-17T10:23:58.247Z,34.70
2023-01-17T10:27:04.699Z,31.40
2023-01-17T10:30:19.139Z,34.23
2023-01-17T10:33:30.011Z,34.07
2023-01-17T10:36:39.473Z,32.43
2023-01-17T10:39:46.399Z,35.80
2023-01-17T10:42:57.771Z,35.87
2023-01-17T10:46:01.665Z,34.80
2023-01-17T10:49:07.179Z,38.70
2023-01-17T10:52:25.778Z,44.17
2023-01-17T10:55:40.199Z,38.87
2023-01-17T10:58:44.104Z,40.80
2023-01-17T11:01:50.298Z,41.33
2023-01-17T11:04:57.425Z,41.80
2023-01-17T11:08:03.080Z,42.70
2023-01-17T11:11:07.100Z,52.63
2023-01-17T11:14:20.159Z,50.23
2023-01-17T11:17:24.220Z,46.40
2023-01-17T11:20:36.565Z,38.80
2023-01-17T11:23:43.699Z,42.87
2023-01-17T11:26:49.938Z,44.03
2023-01-17T11:30:06.762Z,66.43
2023-01-17T11:33:34.700Z,46.53
2023-01-17T11:36:40.158Z,57.53
2023-01-17T11:39:44.489Z,47.27
2023-01-17T11:42:48.498Z,45.17
2023-01-17T11:46:17.250Z,46.33
2023-01-17T11:49:25.917Z,41.53
2023-01-17T11:52:37.745Z,39.47
2023-01-17T11:55:41.759Z,37.00
2023-01-17T11:58:47.501Z,30.83
2023-01-17T12:02:04.670Z,36.73
2023-01-17T12:05:20.069Z,37.77
2023-01-17T12:08:46.041Z,36.50
2023-01-17T12:12:16.184Z,34.57
2023-01-17T12:15:34.440Z,32.83
2023-01-17T12:18:50.196Z,31.83
2023-01-17T12:22:11.748Z,32.80
2023-01-17T12:25:38.259Z,33.50
2023-01-17T12:29:07.219Z,35.00
2023-01-17T12:32:34.880Z,48.50
2023-01-17T12:35:43.341Z,44.63
2023-01-17T12:38:49.540Z,40.97
2023-01-17T12:42:01.592Z,39.30
2023-01-17T12:45:09.714Z,34.47
2023-01-17T12:48:17.442Z,31.37
2023-01-17T12:51:28.031Z,31.03
2023-01-17T12:54:39.901Z,32.10
2023-01-17T12:57:51.458Z,33.97
2023-01-17T13:01:02.970Z,28.37
2023-01-17T13:04:21.467Z,31.47
2023-01-17T13:07:34.278Z,30.93
2023-01-17T13:10:46.417Z,31.07
2023-01-17T13:13:53.640Z,33.17
2023-01-17T13:17:00.409Z,32.27
2023-01-17T13:20:16.339Z,36.50
2023-01-17T13:23:30.918Z,34.63
2023-01-17T13:26:48.987Z,35.80
2023-01-17T13:30:12.601Z,30.23
2023-01-17T13:33:37.425Z,32.50
2023-01-17T13:36:53.119Z,32.03
2023-01-17T13:40:20.280Z,32.57
2023-01-17T13:43:27.158Z,34.10
2023-01-17T13:46:53.821Z,32.43
2023-01-17T13:49:57.600Z,38.53
2023-01-17T13:53:06.097Z,34.97
2023-01-17T13:56:14.962Z,36.63
2023-01-17T13:59:30.558Z,37.90
2023-01-17T14:02:42.476Z,36.43
2023-01-17T14:05:50.462Z,32.57
2023-01-17T14:08:54.722Z,31.50
2023-01-17T14:12:05.666Z,33.43
2023-01-17T14:15:22.507Z,34.10
2023-01-17T14:18:35.529Z,35.73
2023-01-17T14:21:39.450Z,33.77
2023-01-17T14:25:00.239Z,35.03
2023-01-17T14:28:08.122Z,32.83
2023-01-17T14:31:14.217Z,33.93
2023-01-17T14:34:23.541Z,31.70
2023-01-17T14:37:39.638Z,33.50
2023-01-17T14:40:52.823Z,33.97
2023-01-17T14:43:56.860Z,34.47
2023-01-17T14:47:01.020Z,32.20
2023-01-17T14:50:22.543Z,32.50
2023-01-17T14:53:28.416Z,31.77
2023-01-17T14:56:33.285Z,90.93
2023-01-17T14:59:37.118Z,52.57
2023-01-17T15:02:44.561Z,35.03
2023-01-17T15:05:52.792Z,33.63
2023-01-17T15:08:56.679Z,42.77
2023-01-17T15:12:01.101Z,40.80
2023-01-17T15:15:05.139Z,42.30
2023-01-17T15:18:21.209Z,41.50
2023-01-17T15:21:29.619Z,35.10
2023-01-17T15:24:41.642Z,41.20
2023-01-17T15:27:45.510Z,42.03
2023-01-17T15:31:06.616Z,45.53
2023-01-17T15:34:16.066Z,30.37
2023-01-17T15:37:30.032Z,37.50
2023-01-17T15:40:37.879Z,35.20
2023-01-17T15:43:43.539Z,44.83
2023-01-17T15:46:47.439Z,35.43
2023-01-17T15:49:53.066Z,38.80
2023-01-17T15:53:01.150Z,38.70
2023-01-17T15:56:23.750Z,35.00
2023-01-17T15:59:40.719Z,37.93
2023-01-17T16:02:45.664Z,41.53
2023-01-17T16:05:50.102Z,36.57
2023-01-17T16:08:56.362Z,41.57
2023-01-17T16:12:00.991Z,54.83
2023-01-17T16:15:12.871Z,55.07
2023-01-17T16:18:20.447Z,44.70
2023-01-17T16:21:27.085Z,43.07
2023-01-17T16:24:33.019Z,43.13
2023-01-17T16:27:36.898Z,41.20
2023-01-17T16:30:40.878Z,39.03
2023-01-17T16:33:46.205Z,45.13
2023-01-17T16:36:55.340Z,54.10
2023-01-17T16:40:00.674Z,39.67
2023-01-17T16:43:04.620Z,37.97
2023-01-17T16:46:09.039Z,41.37
2023-01-17T16:49:12.998Z,44.07
2023-01-17T16:52:16.862Z,37.53
2023-01-17T16:55:24.574Z,40.53
2023-01-17T16:58:28.358Z,40.10
2023-01-17T17:01:32.357Z,37.73
2023-01-17T17:04:36.239Z,46.07
2023-01-17T17:07:44.263Z,42.50
2023-01-17T17:10:49.579Z,123.03
2023-01-17T17:13:54.070Z,53.70
2023-01-17T17:17:00.791Z,44.97
2023-01-17T17:20:04.758Z,52.07
2023-01-17T17:23:10.164Z,51.13
2023-01-17T17:26:15.398Z,43.57
2023-01-17T17:29:19.278Z,48.00
2023-01-17T17:32:23.659Z,45.73
2023-01-17T17:35:28.318Z,46.60
2023-01-17T17:38:35.263Z,46.83
2023-01-17T17:41:44.018Z,45.43
2023-01-17T17:44:47.819Z,47.70
2023-01-17T17:47:51.830Z,57.70
2023-01-17T17:50:59.766Z,50.90
2023-01-17T17:54:05.812Z,113.93
2023-01-17T17:57:11.223Z,59.03
2023-01-17T18:00:15.841Z,54.93
2023-01-17T18:03:20.919Z,54.77
2023-01-17T18:06:25.419Z,55.20
2023-01-17T18:09:29.262Z,54.53
2023-01-17T18:12:34.697Z,50.90
2023-01-17T18:15:38.438Z,55.97
2023-01-17T18:18:45.462Z,62.00
2023-01-17T18:21:50.607Z,77.30
2023-01-17T18:24:54.341Z,53.67
2023-01-17T18:27:59.681Z,52.40
2023-01-17T18:31:08.161Z,52.30
2023-01-17T18:34:13.694Z,57.37
2023-01-17T18:37:17.582Z,55.63
2023-01-17T18:40:21.467Z,81.23
2023-01-17T18:43:27.938Z,51.13
2023-01-17T18:46:31.937Z,47.27
2023-01-17T18:49:35.838Z,55.70
2023-01-17T18:52:40.055Z,54.67
2023-01-17T18:55:44.037Z,90.13
2023-01-17T18:58:50.267Z,55.97
2023-01-17T19:01:54.416Z,48.67
2023-01-17T19:04:58.243Z,50.60
2023-01-17T19:08:02.097Z,46.53
2023-01-17T19:11:06.559Z,47.07
2023-01-17T19:14:12.788Z,48.13
2023-01-17T19:17:16.818Z,50.77
2023-01-17T19:20:20.579Z,63.57
2023-01-17T19:23:24.544Z,46.37
2023-01-17T19:26:30.174Z,69.53
2023-01-17T19:29:35.529Z,49.23
2023-01-17T19:32:39.399Z,47.27
2023-01-17T19:35:43.178Z,41.50
2023-01-17T19:39:03.053Z,45.07
2023-01-17T19:42:10.738Z,41.00
2023-01-17T19:45:16.489Z,58.30
2023-01-17T19:48:20.339Z,46.67
2023-01-17T19:51:25.321Z,42.00
2023-01-17T19:54:29.162Z,47.90
2023-01-17T19:57:35.198Z,40.30
2023-01-17T20:00:46.404Z,42.57
2023-01-17T20:03:52.409Z,66.17
2023-01-17T20:06:56.324Z,46.40
2023-01-17T20:10:00.120Z,32.83
2023-01-17T20:13:04.958Z,40.07
2023-01-17T20:16:12.026Z,41.37
2023-01-17T20:19:15.902Z,31.87
2023-01-17T20:22:19.798Z,34.20
2023-01-17T20:25:23.560Z,48.10
2023-01-17T20:28:28.458Z,43.63
2023-01-17T20:31:38.330Z,35.57
2023-01-17T20:34:44.086Z,36.43
2023-01-17T20:37:52.280Z,28.33
2023-01-17T20:40:56.559Z,30.63
2023-01-17T20:44:01.737Z,32.50
2023-01-17T20:47:07.119Z,29.47
2023-01-17T20:50:11.823Z,21.70
2023-01-17T20:53:16.318Z,22.43
2023-01-17T20:56:20.464Z,20.70
2023-01-17T20:59:24.817Z,20.87
2023-01-17T21:02:30.287Z,106.77
2023-01-17T21:05:34.178Z,26.37
2023-01-17T21:08:39.727Z,24.37
2023-01-17T21:11:43.677Z,28.57
2023-01-17T21:14:47.582Z,31.83
2023-01-17T21:17:52.909Z,118.37
2023-01-17T21:20:56.801Z,40.40
2023-01-17T21:24:01.536Z,25.20
2023-01-17T21:27:05.661Z,25.13
2023-01-17T21:30:11.479Z,34.50
2023-01-17T21:33:16.723Z,29.67
2023-01-17T21:36:21.241Z,26.87
2023-01-17T21:39:25.418Z,27.00
2023-01-17T21:42:29.279Z,36.10
2023-01-17T21:45:33.359Z,83.30
2023-01-17T21:48:39.706Z,25.37
2023-01-17T21:52:01.718Z,20.60
2023-01-17T21:55:23.238Z,15.37
2023-01-17T21:58:45.207Z,13.77
2023-01-17T22:01:49.129Z,12.63
2023-01-17T22:04:56.439Z,9.30
2023-01-17T22:08:15.880Z,16.27
2023-01-17T22:11:21.658Z,9.00
2023-01-17T22:14:25.499Z,7.23
2023-01-17T22:17:31.300Z,8.97
2023-01-17T22:20:40.162Z,7.60
2023-01-17T22:23:47.839Z,8.67
2023-01-17T22:26:51.699Z,10.40
2023-01-17T22:29:55.458Z,10.93
2023-01-17T22:32:59.831Z,8.13
2023-01-17T22:36:05.963Z,14.67
2023-01-17T22:39:11.221Z,10.93
2023-01-17T22:42:16.798Z,7.97
2023-01-17T22:45:20.519Z,9.70
2023-01-17T22:48:24.381Z,10.53
2023-01-17T22:51:30.337Z,10.03
2023-01-17T22:54:34.018Z,9.07
2023-01-17T22:57:38.162Z,8.13
2023-01-17T23:00:42.105Z,9.13
2023-01-17T23:03:46.780Z,12.33
2023-01-17T23:06:52.238Z,13.17
2023-01-17T23:09:55.967Z,12.13
2023-01-17T23:12:59.945Z,13.80
2023-01-17T23:16:23.926Z,12.40
2023-01-17T23:19:30.338Z,11.77
2023-01-17T23:22:36.259Z,12.40
2023-01-17T23:25:40.078Z,17.53
2023-01-17T23:28:42.802Z,12.67
2023-01-17T23:31:46.700Z,9.70
2023-01-17T23:34:50.652Z,9.57
2023-01-17T23:38:13.302Z,8.90
2023-01-17T23:41:46.199Z,8.00
2023-01-17T23:44:49.999Z,7.10
2023-01-17T23:47:53.939Z,6.30
2023-01-17T23:50:59.849Z,6.67
2023-01-17T23:54:06.552Z,6.73
2023-01-17T23:57:10.356Z,7.23
